sensor_id;sensor_type;location;lat;lon;timestamp;pressure;altitude;pressure_sealevel;temperature;humidity
7662;BME280;30314;48.184;11.510;2023-05-29T00:01:17;95895.13;;;11.39;100.00
7662;BME280;30314;48.184;11.510;2023-05-29T00:03:45;95902.97;;;11.44;100.00
7662;BME280;30314;48.184;11.510;2023-05-29T00:06:11;95903.16;;;11.34;100.00
7662;BME280;30314;48.184;11.510;2023-05-29T00:08:39;95888.19;;;11.24;100.00
7662;BME280;30314;48.184;11.510;2023-05-29T00:11:05;95891.16;;;11.22;100.00
7662;BME280;30314;48.184;11.510;2023-05-29T00:13:32;95897.44;;;11.26;100.00
7662;BME280;30314;48.184;11.510;2023-05-29T00:15:59;95894.56;;;11.23;100.00
7662;BME280;30314;48.184;11.510;2023-05-29T00:18:27;95895.63;;;11.22;100.00
7662;BME280;30314;48.184;11.510;2023-05-29T00:20:53;95889.75;;;11.11;100.00
7662;BME280;30314;48.184;11.510;2023-05-29T00:23:20;95894.56;;;11.04;100.00
7662;BME280;30314;48.184;11.510;2023-05-29T00:25:47;95895.72;;;10.97;100.00
7662;BME280;30314;48.184;11.510;2023-05-29T00:28:14;95891.00;;;10.94;100.00
7662;BME280;30314;48.184;11.510;2023-05-29T00:30:41;95893.72;;;10.89;100.00
7662;BME280;30314;48.184;11.510;2023-05-29T00:33:07;95895.09;;;10.87;100.00
7662;BME280;30314;48.184;11.510;2023-05-29T00:35:35;95884.56;;;10.81;100.00
7662;BME280;30314;48.184;11.510;2023-05-29T00:38:02;95894.50;;;10.90;100.00
7662;BME280;30314;48.184;11.510;2023-05-29T00:40:28;95891.25;;;10.79;100.00
7662;BME280;30314;48.184;11.510;2023-05-29T00:42:55;95889.72;;;10.72;100.00
7662;BME280;30314;48.184;11.510;2023-05-29T00:45:22;95880.94;;;10.77;100.00
7662;BME280;30314;48.184;11.510;2023-05-29T00:47:48;95882.06;;;10.71;100.00
7662;BME280;30314;48.184;11.510;2023-05-29T00:50:15;95872.59;;;10.70;100.00
7662;BME280;30314;48.184;11.510;2023-05-29T00:52:44;95885.00;;;10.69;100.00
7662;BME280;30314;48.184;11.510;2023-05-29T00:55:13;95896.16;;;10.66;100.00
7662;BME280;30314;48.184;11.510;2023-05-29T00:57:40;95891.72;;;10.62;100.00
7662;BME280;30314;48.184;11.510;2023-05-29T01:00:07;95890.19;;;10.55;100.00
7662;BME280;30314;48.184;11.510;2023-05-29T01:02:43;95901.63;;;10.51;100.00
7662;BME280;30314;48.184;11.510;2023-05-29T01:05:12;95891.63;;;10.48;100.00
7662;BME280;30314;48.184;11.510;2023-05-29T01:07:39;95887.41;;;10.47;100.00
7662;BME280;30314;48.184;11.510;2023-05-29T01:10:06;95888.75;;;10.44;100.00
7662;BME280;30314;48.184;11.510;2023-05-29T01:12:49;95892.69;;;10.47;100.00
7662;BME280;30314;48.184;11.510;2023-05-29T01:15:35;95890.31;;;10.45;100.00
7662;BME280;30314;48.184;11.510;2023-05-29T01:20:40;95889.63;;;10.39;100.00
7662;BME280;30314;48.184;11.510;2023-05-29T01:28:51;95889.53;;;10.25;100.00
7662;BME280;30314;48.184;11.510;2023-05-29T01:31:20;95890.88;;;10.23;100.00
7662;BME280;30314;48.184;11.510;2023-05-29T01:33:57;95893.81;;;10.21;100.00
7662;BME280;30314;48.184;11.510;2023-05-29T01:36:25;95889.38;;;10.17;100.00
7662;BME280;30314;48.184;11.510;2023-05-29T01:38:54;95897.63;;;10.10;100.00
7662;BME280;30314;48.184;11.510;2023-05-29T01:41:22;95890.53;;;10.05;100.00
7662;BME280;30314;48.184;11.510;2023-05-29T01:43:50;95889.25;;;10.03;100.00
7662;BME280;30314;48.184;11.510;2023-05-29T01:46:18;95903.22;;;10.03;100.00
7662;BME280;30314;48.184;11.510;2023-05-29T01:48:45;95890.66;;;9.95;100.00
7662;BME280;30314;48.184;11.510;2023-05-29T01:51:12;95899.38;;;9.95;100.00
7662;BME280;30314;48.184;11.510;2023-05-29T01:53:40;95899.38;;;9.95;100.00
7662;BME280;30314;48.184;11.510;2023-05-29T01:56:08;95887.00;;;9.91;100.00
7662;BME280;30314;48.184;11.510;2023-05-29T01:58:37;95890.16;;;9.93;100.00
7662;BME280;30314;48.184;11.510;2023-05-29T02:01:05;95893.28;;;9.95;100.00
7662;BME280;30314;48.184;11.510;2023-05-29T02:03:33;95894.97;;;9.85;100.00
7662;BME280;30314;48.184;11.510;2023-05-29T02:06:00;95892.31;;;9.85;100.00
7662;BME280;30314;48.184;11.510;2023-05-29T02:08:27;95898.72;;;9.79;100.00
7662;BME280;30314;48.184;11.510;2023-05-29T02:10:54;95898.22;;;9.77;100.00
7662;BME280;30314;48.184;11.510;2023-05-29T02:13:22;95899.28;;;9.76;100.00
7662;BME280;30314;48.184;11.510;2023-05-29T02:15:49;95895.63;;;9.72;100.00
7662;BME280;30314;48.184;11.510;2023-05-29T02:18:16;95894.59;;;9.68;100.00
7662;BME280;30314;48.184;11.510;2023-05-29T02:20:46;95893.88;;;9.62;100.00
7662;BME280;30314;48.184;11.510;2023-05-29T02:23:20;95890.16;;;9.63;100.00
7662;BME280;30314;48.184;11.510;2023-05-29T02:25:49;95873.06;;;9.61;100.00
7662;BME280;30314;48.184;11.510;2023-05-29T02:28:16;95885.69;;;9.64;100.00
7662;BME280;30314;48.184;11.510;2023-05-29T02:30:43;95887.53;;;9.63;100.00
7662;BME280;30314;48.184;11.510;2023-05-29T02:33:09;95886.78;;;9.57;100.00
7662;BME280;30314;48.184;11.510;2023-05-29T02:35:36;95887.84;;;9.56;100.00
7662;BME280;30314;48.184;11.510;2023-05-29T02:38:03;95892.13;;;9.52;100.00
7662;BME280;30314;48.184;11.510;2023-05-29T02:40:30;95891.84;;;9.54;100.00
7662;BME280;30314;48.184;11.510;2023-05-29T02:42:57;95890.47;;;9.62;100.00
7662;BME280;30314;48.184;11.510;2023-05-29T02:45:24;95886.03;;;9.52;100.00
7662;BME280;30314;48.184;11.510;2023-05-29T02:47:50;95887.66;;;9.48;100.00
7662;BME280;30314;48.184;11.510;2023-05-29T02:50:17;95894.56;;;9.43;100.00
7662;BME280;30314;48.184;11.510;2023-05-29T02:52:44;95887.97;;;9.46;100.00
7662;BME280;30314;48.184;11.510;2023-05-29T02:55:10;95891.38;;;9.47;100.00
7662;BME280;30314;48.184;11.510;2023-05-29T02:57:38;95887.44;;;9.44;100.00
7662;BME280;30314;48.184;11.510;2023-05-29T03:00:05;95880.41;;;9.34;100.00
7662;BME280;30314;48.184;11.510;2023-05-29T03:02:32;95888.47;;;9.48;100.00
7662;BME280;30314;48.184;11.510;2023-05-29T03:05:00;95883.00;;;9.39;100.00
7662;BME280;30314;48.184;11.510;2023-05-29T03:07:27;95894.81;;;9.47;100.00
7662;BME280;30314;48.184;11.510;2023-05-29T03:09:55;95892.69;;;9.44;100.00
7662;BME280;30314;48.184;11.510;2023-05-29T03:12:25;95897.03;;;9.35;100.00
7662;BME280;30314;48.184;11.510;2023-05-29T03:14:54;95897.59;;;9.26;100.00
7662;BME280;30314;48.184;11.510;2023-05-29T03:17:23;95893.66;;;9.24;100.00
7662;BME280;30314;48.184;11.510;2023-05-29T03:19:50;95900.78;;;9.23;100.00
7662;BME280;30314;48.184;11.510;2023-05-29T03:22:18;95897.88;;;9.25;100.00
7662;BME280;30314;48.184;11.510;2023-05-29T03:24:45;95891.59;;;9.21;100.00
7662;BME280;30314;48.184;11.510;2023-05-29T03:27:13;95893.88;;;9.33;100.00
7662;BME280;30314;48.184;11.510;2023-05-29T03:29:41;95894.41;;;9.29;100.00
7662;BME280;30314;48.184;11.510;2023-05-29T03:32:07;95897.34;;;9.23;100.00
7662;BME280;30314;48.184;11.510;2023-05-29T03:34:34;95896.31;;;9.19;100.00
7662;BME280;30314;48.184;11.510;2023-05-29T03:37:03;95898.16;;;9.18;100.00
7662;BME280;30314;48.184;11.510;2023-05-29T03:39:30;95907.66;;;9.14;100.00
7662;BME280;30314;48.184;11.510;2023-05-29T03:41:57;95891.63;;;9.10;100.00
7662;BME280;30314;48.184;11.510;2023-05-29T03:44:24;95904.47;;;9.17;100.00
7662;BME280;30314;48.184;11.510;2023-05-29T03:46:51;95908.69;;;9.18;100.00
7662;BME280;30314;48.184;11.510;2023-05-29T03:49:18;95913.75;;;9.14;100.00
7662;BME280;30314;48.184;11.510;2023-05-29T03:51:45;95915.06;;;9.12;100.00
7662;BME280;30314;48.184;11.510;2023-05-29T03:54:13;95910.03;;;9.15;100.00
7662;BME280;30314;48.184;11.510;2023-05-29T03:56:39;95913.97;;;9.18;100.00
7662;BME280;30314;48.184;11.510;2023-05-29T03:59:07;95918.69;;;9.26;100.00
7662;BME280;30314;48.184;11.510;2023-05-29T04:01:33;95915.22;;;9.31;100.00
7662;BME280;30314;48.184;11.510;2023-05-29T04:04:01;95917.03;;;9.36;100.00
7662;BME280;30314;48.184;11.510;2023-05-29T04:06:28;95903.63;;;9.32;100.00
7662;BME280;30314;48.184;11.510;2023-05-29T04:08:56;95925.41;;;9.43;100.00
7662;BME280;30314;48.184;11.510;2023-05-29T04:11:22;95921.44;;;9.46;100.00
7662;BME280;30314;48.184;11.510;2023-05-29T04:13:49;95923.28;;;9.45;100.00
7662;BME280;30314;48.184;11.510;2023-05-29T04:16:16;95917.22;;;9.44;100.00
7662;BME280;30314;48.184;11.510;2023-05-29T04:18:43;95927.47;;;9.51;100.00
7662;BME280;30314;48.184;11.510;2023-05-29T04:21:10;95936.66;;;9.54;100.00
7662;BME280;30314;48.184;11.510;2023-05-29T04:23:37;95934.28;;;9.52;100.00
7662;BME280;30314;48.184;11.510;2023-05-29T04:26:04;95935.03;;;9.58;100.00
7662;BME280;30314;48.184;11.510;2023-05-29T04:28:34;95942.38;;;9.66;100.00
7662;BME280;30314;48.184;11.510;2023-05-29T04:31:03;95944.94;;;9.71;100.00
7662;BME280;30314;48.184;11.510;2023-05-29T04:33:32;95944.69;;;9.73;100.00
7662;BME280;30314;48.184;11.510;2023-05-29T04:36:03;95951.75;;;9.78;100.00
7662;BME280;30314;48.184;11.510;2023-05-29T04:38:32;95948.00;;;9.84;100.00
7662;BME280;30314;48.184;11.510;2023-05-29T04:40:58;95948.19;;;9.93;100.00
7662;BME280;30314;48.184;11.510;2023-05-29T04:43:27;95951.06;;;9.96;100.00
7662;BME280;30314;48.184;11.510;2023-05-29T04:46:00;95944.94;;;10.01;100.00
7662;BME280;30314;48.184;11.510;2023-05-29T04:48:30;95954.09;;;10.09;100.00
7662;BME280;30314;48.184;11.510;2023-05-29T04:50:57;95959.78;;;10.21;100.00
7662;BME280;30314;48.184;11.510;2023-05-29T04:53:26;95955.75;;;10.29;100.00
7662;BME280;30314;48.184;11.510;2023-05-29T04:55:53;95962.19;;;10.42;100.00
7662;BME280;30314;48.184;11.510;2023-05-29T04:58:20;95963.72;;;10.48;100.00
7662;BME280;30314;48.184;11.510;2023-05-29T05:00:49;95956.94;;;10.61;100.00
7662;BME280;30314;48.184;11.510;2023-05-29T05:03:15;95961.03;;;10.72;100.00
7662;BME280;30314;48.184;11.510;2023-05-29T05:05:43;95962.50;;;10.84;100.00
7662;BME280;30314;48.184;11.510;2023-05-29T05:08:12;95955.78;;;10.92;100.00
7662;BME280;30314;48.184;11.510;2023-05-29T05:10:38;95962.28;;;10.99;100.00
7662;BME280;30314;48.184;11.510;2023-05-29T05:13:06;95958.47;;;11.11;100.00
7662;BME280;30314;48.184;11.510;2023-05-29T05:15:35;95957.03;;;11.19;100.00
7662;BME280;30314;48.184;11.510;2023-05-29T05:18:03;95959.31;;;11.25;100.00
7662;BME280;30314;48.184;11.510;2023-05-29T05:20:31;95962.09;;;11.34;100.00
7662;BME280;30314;48.184;11.510;2023-05-29T05:22:59;95957.50;;;11.40;100.00
7662;BME280;30314;48.184;11.510;2023-05-29T05:25:26;95967.94;;;11.50;100.00
7662;BME280;30314;48.184;11.510;2023-05-29T05:27:53;95964.63;;;11.59;100.00
7662;BME280;30314;48.184;11.510;2023-05-29T05:30:21;95966.59;;;11.67;100.00
7662;BME280;30314;48.184;11.510;2023-05-29T05:32:48;95965.94;;;11.75;100.00
7662;BME280;30314;48.184;11.510;2023-05-29T05:35:15;95968.72;;;11.84;100.00
7662;BME280;30314;48.184;11.510;2023-05-29T05:37:42;95972.06;;;11.90;100.00
7662;BME280;30314;48.184;11.510;2023-05-29T05:40:10;95970.31;;;11.99;100.00
7662;BME280;30314;48.184;11.510;2023-05-29T05:42:48;95974.34;;;12.10;100.00
7662;BME280;30314;48.184;11.510;2023-05-29T05:45:15;95974.84;;;12.26;100.00
7662;BME280;30314;48.184;11.510;2023-05-29T05:47:42;95978.41;;;12.36;100.00
7662;BME280;30314;48.184;11.510;2023-05-29T05:50:09;95970.56;;;12.45;100.00
7662;BME280;30314;48.184;11.510;2023-05-29T05:52:36;95975.44;;;12.51;100.00
7662;BME280;30314;48.184;11.510;2023-05-29T05:55:04;95975.94;;;12.67;100.00
7662;BME280;30314;48.184;11.510;2023-05-29T05:57:31;95982.94;;;12.77;100.00
7662;BME280;30314;48.184;11.510;2023-05-29T05:59:59;95984.84;;;13.00;100.00
7662;BME280;30314;48.184;11.510;2023-05-29T06:02:27;95982.25;;;13.22;100.00
7662;BME280;30314;48.184;11.510;2023-05-29T06:04:54;95986.00;;;13.67;94.72
7662;BME280;30314;48.184;11.510;2023-05-29T06:07:21;95979.13;;;13.89;92.87
7662;BME280;30314;48.184;11.510;2023-05-29T06:09:48;95990.38;;;13.86;94.41
7662;BME280;30314;48.184;11.510;2023-05-29T06:12:15;95990.38;;;13.86;94.95
7662;BME280;30314;48.184;11.510;2023-05-29T06:14:52;95979.09;;;14.12;86.93
7662;BME280;30314;48.184;11.510;2023-05-29T06:17:19;95988.22;;;14.19;88.03
7662;BME280;30314;48.184;11.510;2023-05-29T06:19:49;95994.78;;;14.22;88.75
7662;BME280;30314;48.184;11.510;2023-05-29T06:22:15;95994.00;;;14.21;88.32
7662;BME280;30314;48.184;11.510;2023-05-29T06:24:42;95989.81;;;14.29;88.83
7662;BME280;30314;48.184;11.510;2023-05-29T06:27:09;95993.63;;;14.46;84.78
7662;BME280;30314;48.184;11.510;2023-05-29T06:29:36;95995.28;;;14.64;82.98
7662;BME280;30314;48.184;11.510;2023-05-29T06:32:03;95998.69;;;14.56;87.34
7662;BME280;30314;48.184;11.510;2023-05-29T06:34:30;95994.94;;;14.57;88.59
7662;BME280;30314;48.184;11.510;2023-05-29T06:36:57;95992.75;;;14.59;89.22
7662;BME280;30314;48.184;11.510;2023-05-29T06:39:23;95989.63;;;14.66;89.66
7662;BME280;30314;48.184;11.510;2023-05-29T06:41:51;95995.78;;;14.75;87.88
7662;BME280;30314;48.184;11.510;2023-05-29T06:44:18;95998.75;;;14.83;87.09
7662;BME280;30314;48.184;11.510;2023-05-29T06:46:44;96001.75;;;14.99;82.49
7662;BME280;30314;48.184;11.510;2023-05-29T06:49:11;96003.31;;;15.00;84.35
7662;BME280;30314;48.184;11.510;2023-05-29T06:51:38;95999.44;;;15.06;85.96
7662;BME280;30314;48.184;11.510;2023-05-29T06:54:13;96008.06;;;15.29;79.72
7662;BME280;30314;48.184;11.510;2023-05-29T06:56:40;95991.78;;;15.31;79.75
7662;BME280;30314;48.184;11.510;2023-05-29T06:59:07;96006.50;;;15.37;82.57
7662;BME280;30314;48.184;11.510;2023-05-29T07:01:34;95999.97;;;15.43;81.81
7662;BME280;30314;48.184;11.510;2023-05-29T07:04:03;96005.75;;;15.45;81.97
7662;BME280;30314;48.184;11.510;2023-05-29T07:06:30;96006.84;;;15.53;82.80
7662;BME280;30314;48.184;11.510;2023-05-29T07:08:58;96001.34;;;15.58;83.12
7662;BME280;30314;48.184;11.510;2023-05-29T07:11:24;96006.84;;;15.71;79.43
7662;BME280;30314;48.184;11.510;2023-05-29T07:13:53;96020.28;;;15.83;82.05
7662;BME280;30314;48.184;11.510;2023-05-29T07:16:22;96014.94;;;15.92;82.23
7662;BME280;30314;48.184;11.510;2023-05-29T07:19:00;96021.50;;;16.12;81.47
7662;BME280;30314;48.184;11.510;2023-05-29T07:21:29;96017.09;;;16.16;79.69
7662;BME280;30314;48.184;11.510;2023-05-29T07:23:59;96025.69;;;16.22;82.92
7662;BME280;30314;48.184;11.510;2023-05-29T07:26:25;96023.50;;;16.24;79.22
7662;BME280;30314;48.184;11.510;2023-05-29T07:28:52;96033.19;;;16.29;79.73
7662;BME280;30314;48.184;11.510;2023-05-29T07:31:19;96033.03;;;16.34;79.84
7662;BME280;30314;48.184;11.510;2023-05-29T07:33:48;96036.94;;;16.45;78.72
7662;BME280;30314;48.184;11.510;2023-05-29T07:36:16;96036.75;;;16.51;79.78
7662;BME280;30314;48.184;11.510;2023-05-29T07:38:45;96035.00;;;16.55;80.72
7662;BME280;30314;48.184;11.510;2023-05-29T07:41:15;96036.41;;;16.61;83.08
7662;BME280;30314;48.184;11.510;2023-05-29T07:43:48;96024.97;;;16.60;83.73
7662;BME280;30314;48.184;11.510;2023-05-29T07:46:19;96024.72;;;16.83;80.07
7662;BME280;30314;48.184;11.510;2023-05-29T07:48:48;96032.72;;;16.83;77.86
7662;BME280;30314;48.184;11.510;2023-05-29T07:51:16;96030.94;;;16.87;76.80
7662;BME280;30314;48.184;11.510;2023-05-29T07:53:45;96026.22;;;16.93;76.36
7662;BME280;30314;48.184;11.510;2023-05-29T07:56:13;96029.34;;;16.95;76.94
7662;BME280;30314;48.184;11.510;2023-05-29T07:58:40;96039.66;;;17.05;78.35
7662;BME280;30314;48.184;11.510;2023-05-29T08:01:07;96032.91;;;17.29;75.39
7662;BME280;30314;48.184;11.510;2023-05-29T08:03:35;96041.38;;;17.74;73.65
7662;BME280;30314;48.184;11.510;2023-05-29T08:06:23;96043.88;;;17.79;70.33
7662;BME280;30314;48.184;11.510;2023-05-29T08:08:49;96035.00;;;17.66;76.21
7662;BME280;30314;48.184;11.510;2023-05-29T08:11:16;96037.81;;;17.70;75.78
7662;BME280;30314;48.184;11.510;2023-05-29T08:13:44;96034.84;;;17.71;73.56
7662;BME280;30314;48.184;11.510;2023-05-29T08:16:11;96042.94;;;17.75;74.56
7662;BME280;30314;48.184;11.510;2023-05-29T08:18:41;96044.19;;;17.78;71.24
7662;BME280;30314;48.184;11.510;2023-05-29T08:21:08;96035.00;;;17.87;76.38
7662;BME280;30314;48.184;11.510;2023-05-29T08:23:35;96029.47;;;17.93;73.96
7662;BME280;30314;48.184;11.510;2023-05-29T08:26:02;96032.69;;;18.32;67.27
7662;BME280;30314;48.184;11.510;2023-05-29T08:28:32;96032.97;;;18.89;71.99
7662;BME280;30314;48.184;11.510;2023-05-29T08:30:58;96040.00;;;18.94;68.35
7662;BME280;30314;48.184;11.510;2023-05-29T08:33:25;96036.09;;;18.79;66.66
7662;BME280;30314;48.184;11.510;2023-05-29T08:35:51;96041.50;;;18.57;70.58
7662;BME280;30314;48.184;11.510;2023-05-29T08:38:18;96040.94;;;18.39;66.81
7662;BME280;30314;48.184;11.510;2023-05-29T08:40:47;96044.13;;;18.33;68.03
7662;BME280;30314;48.184;11.510;2023-05-29T08:43:21;96039.34;;;18.26;71.39
7662;BME280;30314;48.184;11.510;2023-05-29T08:45:55;96035.09;;;18.25;72.33
7662;BME280;30314;48.184;11.510;2023-05-29T08:48:24;96026.50;;;18.19;71.24
7662;BME280;30314;48.184;11.510;2023-05-29T08:50:53;96030.88;;;18.24;69.35
7662;BME280;30314;48.184;11.510;2023-05-29T08:53:21;96033.66;;;18.27;68.50
7662;BME280;30314;48.184;11.510;2023-05-29T08:55:49;96032.25;;;18.30;71.06
7662;BME280;30314;48.184;11.510;2023-05-29T08:58:19;96035.69;;;18.30;71.12
7662;BME280;30314;48.184;11.510;2023-05-29T09:00:49;96041.47;;;18.33;71.62
7662;BME280;30314;48.184;11.510;2023-05-29T09:03:17;96037.59;;;18.30;75.32
7662;BME280;30314;48.184;11.510;2023-05-29T09:05:44;96037.59;;;18.42;72.94
7662;BME280;30314;48.184;11.510;2023-05-29T09:08:12;96040.72;;;18.44;69.84
7662;BME280;30314;48.184;11.510;2023-05-29T09:10:40;96041.94;;;18.47;72.49
7662;BME280;30314;48.184;11.510;2023-05-29T09:13:08;96039.50;;;18.54;72.09
7662;BME280;30314;48.184;11.510;2023-05-29T09:15:36;96041.75;;;18.65;70.70
7662;BME280;30314;48.184;11.510;2023-05-29T09:18:05;96035.66;;;18.77;70.58
7662;BME280;30314;48.184;11.510;2023-05-29T09:20:32;96031.41;;;18.76;68.58
7662;BME280;30314;48.184;11.510;2023-05-29T09:23:00;96044.63;;;18.72;71.95
7662;BME280;30314;48.184;11.510;2023-05-29T09:25:29;96039.75;;;18.74;68.00
7662;BME280;30314;48.184;11.510;2023-05-29T09:28:04;96034.88;;;18.76;67.52
7662;BME280;30314;48.184;11.510;2023-05-29T09:30:37;96039.44;;;18.76;68.88
7662;BME280;30314;48.184;11.510;2023-05-29T09:33:06;96027.94;;;18.87;69.43
7662;BME280;30314;48.184;11.510;2023-05-29T09:38:07;96032.72;;;19.07;64.72
7662;BME280;30314;48.184;11.510;2023-05-29T09:40:39;96032.84;;;19.10;62.03
7662;BME280;30314;48.184;11.510;2023-05-29T09:43:11;96031.97;;;19.06;61.34
7662;BME280;30314;48.184;11.510;2023-05-29T09:45:42;96042.44;;;19.11;64.16
7662;BME280;30314;48.184;11.510;2023-05-29T09:48:22;96039.53;;;19.17;61.12
7662;BME280;30314;48.184;11.510;2023-05-29T09:50:49;96039.19;;;19.18;55.85
7662;BME280;30314;48.184;11.510;2023-05-29T09:53:18;96034.63;;;19.19;57.68
7662;BME280;30314;48.184;11.510;2023-05-29T09:55:46;96037.97;;;19.28;58.05
7662;BME280;30314;48.184;11.510;2023-05-29T09:58:23;96036.59;;;19.34;59.17
7662;BME280;30314;48.184;11.510;2023-05-29T10:00:51;96038.59;;;19.37;59.29
7662;BME280;30314;48.184;11.510;2023-05-29T10:03:19;96037.09;;;19.65;52.87
7662;BME280;30314;48.184;11.510;2023-05-29T10:05:53;96031.72;;;19.65;56.58
7662;BME280;30314;48.184;11.510;2023-05-29T10:08:23;96034.72;;;19.76;51.26
7662;BME280;30314;48.184;11.510;2023-05-29T10:10:55;96029.63;;;19.70;53.25
7662;BME280;30314;48.184;11.510;2023-05-29T10:13:28;96028.06;;;19.69;56.37
7662;BME280;30314;48.184;11.510;2023-05-29T10:15:58;96034.47;;;19.81;55.31
7662;BME280;30314;48.184;11.510;2023-05-29T10:18:32;96027.31;;;19.85;56.57
7662;BME280;30314;48.184;11.510;2023-05-29T10:21:01;96023.78;;;19.97;55.28
7662;BME280;30314;48.184;11.510;2023-05-29T10:23:29;96019.00;;;20.19;54.04
7662;BME280;30314;48.184;11.510;2023-05-29T10:26:10;96018.13;;;20.31;51.57
7662;BME280;30314;48.184;11.510;2023-05-29T10:28:41;96020.75;;;20.59;51.74
7662;BME280;30314;48.184;11.510;2023-05-29T10:31:33;96022.44;;;20.64;54.19
7662;BME280;30314;48.184;11.510;2023-05-29T10:34:22;96025.03;;;20.76;53.79
7662;BME280;30314;48.184;11.510;2023-05-29T10:36:59;96021.88;;;20.90;51.94
7662;BME280;30314;48.184;11.510;2023-05-29T10:39:28;96016.69;;;20.97;50.14
7662;BME280;30314;48.184;11.510;2023-05-29T10:41:55;96023.25;;;21.00;51.57
7662;BME280;30314;48.184;11.510;2023-05-29T10:44:44;96017.53;;;21.02;51.36
7662;BME280;30314;48.184;11.510;2023-05-29T10:47:11;96016.00;;;21.20;49.04
7662;BME280;30314;48.184;11.510;2023-05-29T10:49:39;96017.94;;;21.39;48.62
7662;BME280;30314;48.184;11.510;2023-05-29T10:52:06;96014.63;;;21.46;48.83
7662;BME280;30314;48.184;11.510;2023-05-29T10:54:40;96013.19;;;21.68;49.31
7662;BME280;30314;48.184;11.510;2023-05-29T10:57:15;96016.00;;;21.76;49.82
7662;BME280;30314;48.184;11.510;2023-05-29T10:59:44;96022.69;;;21.86;48.34
7662;BME280;30314;48.184;11.510;2023-05-29T11:02:17;96013.31;;;21.95;49.54
7662;BME280;30314;48.184;11.510;2023-05-29T11:04:44;96018.72;;;21.99;49.53
7662;BME280;30314;48.184;11.510;2023-05-29T11:07:32;96013.03;;;21.81;46.27
7662;BME280;30314;48.184;11.510;2023-05-29T11:10:11;96014.53;;;21.78;45.54
7662;BME280;30314;48.184;11.510;2023-05-29T11:12:56;96016.41;;;21.78;48.28
7662;BME280;30314;48.184;11.510;2023-05-29T11:15:24;96010.22;;;21.74;46.33
7662;BME280;30314;48.184;11.510;2023-05-29T11:17:50;96011.91;;;21.82;48.59
7662;BME280;30314;48.184;11.510;2023-05-29T11:20:36;96011.81;;;21.98;48.41
7662;BME280;30314;48.184;11.510;2023-05-29T11:23:05;96009.03;;;22.14;46.25
7662;BME280;30314;48.184;11.510;2023-05-29T11:25:36;96012.03;;;22.32;46.59
7662;BME280;30314;48.184;11.510;2023-05-29T11:28:05;96012.75;;;22.29;48.06
7662;BME280;30314;48.184;11.510;2023-05-29T11:30:45;96020.09;;;22.09;45.32
7662;BME280;30314;48.184;11.510;2023-05-29T11:33:23;96009.47;;;21.96;46.83
7662;BME280;30314;48.184;11.510;2023-05-29T11:35:58;96014.28;;;22.07;46.52
7662;BME280;30314;48.184;11.510;2023-05-29T11:38:26;96015.84;;;21.88;43.84
7662;BME280;30314;48.184;11.510;2023-05-29T11:40:56;96011.81;;;21.59;45.09
7662;BME280;30314;48.184;11.510;2023-05-29T11:43:24;96014.38;;;21.51;47.82
7662;BME280;30314;48.184;11.510;2023-05-29T11:45:51;96013.53;;;21.67;45.15
7662;BME280;30314;48.184;11.510;2023-05-29T11:48:18;96017.28;;;21.82;42.04
7662;BME280;30314;48.184;11.510;2023-05-29T11:50:44;96013.72;;;21.78;42.60
7662;BME280;30314;48.184;11.510;2023-05-29T11:53:11;96012.06;;;21.70;42.08
7662;BME280;30314;48.184;11.510;2023-05-29T11:55:38;96015.44;;;21.66;45.15
7662;BME280;30314;48.184;11.510;2023-05-29T11:58:05;96009.94;;;21.59;45.41
7662;BME280;30314;48.184;11.510;2023-05-29T12:00:36;96010.69;;;21.60;46.89
7662;BME280;30314;48.184;11.510;2023-05-29T12:03:04;96006.41;;;21.55;45.83
7662;BME280;30314;48.184;11.510;2023-05-29T12:05:48;96007.38;;;21.66;46.19
7662;BME280;30314;48.184;11.510;2023-05-29T12:08:15;96008.56;;;21.69;45.51
7662;BME280;30314;48.184;11.510;2023-05-29T12:10:47;96004.25;;;21.64;44.50
7662;BME280;30314;48.184;11.510;2023-05-29T12:13:14;96011.47;;;21.60;44.39
7662;BME280;30314;48.184;11.510;2023-05-29T12:15:44;96009.38;;;21.70;43.37
7662;BME280;30314;48.184;11.510;2023-05-29T12:18:10;96004.84;;;21.54;42.57
7662;BME280;30314;48.184;11.510;2023-05-29T12:20:38;96008.38;;;21.58;41.73
7662;BME280;30314;48.184;11.510;2023-05-29T12:23:05;96003.81;;;21.43;41.97
7662;BME280;30314;48.184;11.510;2023-05-29T12:25:34;96003.44;;;21.44;41.72
7662;BME280;30314;48.184;11.510;2023-05-29T12:28:04;96006.22;;;21.48;40.70
7662;BME280;30314;48.184;11.510;2023-05-29T12:30:31;96008.22;;;21.51;41.94
7662;BME280;30314;48.184;11.510;2023-05-29T12:33:02;96005.09;;;21.49;42.68
7662;BME280;30314;48.184;11.510;2023-05-29T12:35:30;95994.97;;;21.42;43.16
7662;BME280;30314;48.184;11.510;2023-05-29T12:37:58;95997.94;;;21.37;45.49
7662;BME280;30314;48.184;11.510;2023-05-29T12:40:27;96006.72;;;21.34;43.61
7662;BME280;30314;48.184;11.510;2023-05-29T12:43:00;96001.81;;;21.39;44.57
7662;BME280;30314;48.184;11.510;2023-05-29T12:45:31;96012.31;;;21.45;41.65
7662;BME280;30314;48.184;11.510;2023-05-29T12:48:03;96004.78;;;21.34;42.96
7662;BME280;30314;48.184;11.510;2023-05-29T12:50:32;96011.59;;;21.28;42.52
7662;BME280;30314;48.184;11.510;2023-05-29T12:53:10;96004.56;;;21.23;43.48
7662;BME280;30314;48.184;11.510;2023-05-29T12:55:39;96005.25;;;21.20;46.59
7662;BME280;30314;48.184;11.510;2023-05-29T12:58:07;96004.66;;;21.27;45.68
7662;BME280;30314;48.184;11.510;2023-05-29T13:00:36;96010.66;;;21.40;43.66
7662;BME280;30314;48.184;11.510;2023-05-29T13:03:03;96002.69;;;21.44;42.19
7662;BME280;30314;48.184;11.510;2023-05-29T13:05:30;96003.09;;;21.46;40.09
7662;BME280;30314;48.184;11.510;2023-05-29T13:07:57;96003.09;;;21.46;39.94
7662;BME280;30314;48.184;11.510;2023-05-29T13:10:26;95998.16;;;21.48;38.91
7662;BME280;30314;48.184;11.510;2023-05-29T13:12:54;95990.22;;;21.35;39.06
7662;BME280;30314;48.184;11.510;2023-05-29T13:15:25;95987.34;;;21.44;39.39
7662;BME280;30314;48.184;11.510;2023-05-29T13:17:53;96004.25;;;21.45;40.42